Time;durP1;ratioP1;P1;durP2;ratioP2;P2;SDS_P1;SDS_P2;PMS_P1;PMS_P2;Temp;Humidity;BMP_temperature;BMP_pressure;BME280_temperature;BME280_humidity;BME280_pressure;Samples;Min_cycle;Max_cycle;Signal;HPM_P1;HPM_P2
2023/12/16 00:00:57;;;;;;;;;;;;;;;4.00;77.69;100534.88;108683;1253;1002295;-59
2023/12/16 00:03:26;;;;;;;;;;;;;;;4.02;78.02;100534.70;109420;1254;74713;-60
2023/12/16 00:05:54;;;;;;;;;;;;;;;4.02;78.02;100526.73;109474;1255;68053;-60
2023/12/16 00:08:22;;;;;;;;;;;;;;;4.07;77.87;100527.02;109336;1254;72715;-59
2023/12/16 00:10:50;;;;;;;;;;;;;;;4.05;78.06;100537.06;109444;1253;59698;-59
2023/12/16 00:13:22;;;;;;;;;;;;;;;4.07;77.94;100538.15;109463;1253;59870;-59
2023/12/16 00:15:50;;;;;;;;;;;;;;;3.98;78.40;100541.08;109476;1252;74749;-58
2023/12/16 00:18:17;;;;;;;;;;;;;;;4.07;78.51;100538.39;109450;1253;68801;-60
2023/12/16 00:20:45;;;;;;;;;;;;;;;4.05;78.62;100538.69;109333;1254;72796;-59
2023/12/16 00:23:13;;;;;;;;;;;;;;;3.95;79.11;100534.93;109324;1254;59007;-62
2023/12/16 00:25:40;;;;;;;;;;;;;;;4.03;79.19;100530.66;107970;1254;1002366;-62
2023/12/16 00:28:08;;;;;;;;;;;;;;;4.05;78.84;100530.15;109465;1253;73224;-61
2023/12/16 00:30:36;;;;;;;;;;;;;;;4.14;78.61;100528.48;109498;1253;67478;-62
2023/12/16 00:33:03;;;;;;;;;;;;;;;4.16;78.46;100533.05;109490;1253;71492;-61
2023/12/16 00:35:31;;;;;;;;;;;;;;;4.14;78.54;100533.65;109378;1253;61018;-60
2023/12/16 00:37:59;;;;;;;;;;;;;;;4.14;78.54;100537.53;109461;1253;60025;-58
2023/12/16 00:40:26;;;;;;;;;;;;;;;4.20;78.72;100534.20;109467;1252;73847;-58
2023/12/16 00:42:54;;;;;;;;;;;;;;;4.17;78.68;100533.85;109456;1254;68805;-58
2023/12/16 00:45:22;;;;;;;;;;;;;;;4.08;79.18;100533.00;109382;1253;72882;-59
2023/12/16 00:47:49;;;;;;;;;;;;;;;4.09;79.65;100536.86;108711;1253;1002196;-58
2023/12/16 00:50:17;;;;;;;;;;;;;;;4.06;79.53;100534.02;109556;1252;59096;-58
2023/12/16 00:52:44;;;;;;;;;;;;;;;4.12;79.61;100538.48;109495;1253;74717;-58
2023/12/16 00:55:11;;;;;;;;;;;;;;;4.13;79.57;100537.94;109533;1253;68814;-58
2023/12/16 00:57:39;;;;;;;;;;;;;;;4.04;79.95;100538.44;109252;1253;71426;-58
2023/12/16 01:00:07;;;;;;;;;;;;;;;4.07;79.90;100538.88;109489;1252;59665;-59
2023/12/16 01:02:35;;;;;;;;;;;;;;;3.95;80.65;100539.45;109499;1253;59830;-58
2023/12/16 01:05:03;;;;;;;;;;;;;;;4.03;80.74;100543.90;109559;1251;74685;-58
2023/12/16 01:07:31;;;;;;;;;;;;;;;4.04;80.39;100548.00;109473;1253;67672;-58
2023/12/16 01:09:58;;;;;;;;;;;;;;;3.94;81.25;100549.42;109538;1252;72710;-58
2023/12/16 01:12:26;;;;;;;;;;;;;;;4.05;80.93;100545.89;109571;1253;60943;-58
2023/12/16 01:14:53;;;;;;;;;;;;;;;3.98;81.40;100545.11;109425;1254;59003;-59
2023/12/16 01:17:21;;;;;;;;;;;;;;;3.99;81.47;100545.58;109441;1253;73424;-59
2023/12/16 01:19:48;;;;;;;;;;;;;;;4.10;81.27;100544.76;109434;1254;68529;-59
2023/12/16 01:22:16;;;;;;;;;;;;;;;4.02;81.27;100540.78;109390;1254;71456;-59
2023/12/16 01:24:44;;;;;;;;;;;;;;;4.12;81.15;100543.19;109450;1254;60939;-59
2023/12/16 01:27:11;;;;;;;;;;;;;;;4.06;81.08;100542.96;109444;1253;59025;-60
2023/12/16 01:29:38;;;;;;;;;;;;;;;4.07;81.20;100545.46;109415;1253;73463;-59
2023/12/16 01:32:07;;;;;;;;;;;;;;;3.95;81.81;100544.46;109220;1254;67529;-60
2023/12/16 01:34:35;;;;;;;;;;;;;;;3.97;81.93;100548.09;109437;1254;72713;-60
2023/12/16 01:37:02;;;;;;;;;;;;;;;4.02;82.06;100545.17;109438;1253;60897;-59
2023/12/16 01:39:30;;;;;;;;;;;;;;;3.99;82.03;100546.96;109471;1253;58998;-58
2023/12/16 01:41:57;;;;;;;;;;;;;;;4.06;82.12;100544.59;109449;1254;74744;-62
2023/12/16 01:44:25;;;;;;;;;;;;;;;4.09;81.68;100549.86;109284;1253;67653;-59
2023/12/16 01:46:52;;;;;;;;;;;;;;;4.02;82.14;100553.67;109250;1253;72715;-59
2023/12/16 01:49:20;;;;;;;;;;;;;;;4.07;81.98;100560.42;109580;1252;59634;-59
2023/12/16 01:51:48;;;;;;;;;;;;;;;4.15;81.96;100557.98;109580;1253;58859;-59
2023/12/16 01:54:15;;;;;;;;;;;;;;;4.22;81.43;100550.86;109695;1251;74716;-59
2023/12/16 01:56:43;;;;;;;;;;;;;;;4.21;81.61;100552.52;109679;1251;68847;-59
2023/12/16 01:59:10;;;;;;;;;;;;;;;4.24;81.83;100556.36;109635;1253;70737;-62
2023/12/16 02:01:38;;;;;;;;;;;;;;;4.28;81.36;100560.42;109633;1251;59803;-59
2023/12/16 02:04:06;;;;;;;;;;;;;;;4.07;82.54;100559.13;109647;1251;59959;-62
2023/12/16 02:06:34;;;;;;;;;;;;;;;4.30;81.88;100561.79;109629;1251;74785;-59
2023/12/16 02:09:01;;;;;;;;;;;;;;;4.29;81.49;100561.05;109665;1251;68854;-59
2023/12/16 02:11:29;;;;;;;;;;;;;;;4.26;81.76;100559.86;109544;1253;71363;-59
2023/12/16 02:13:56;;;;;;;;;;;;;;;4.29;81.91;100561.83;109415;1254;60927;-59
2023/12/16 02:16:23;;;;;;;;;;;;;;;4.39;81.34;100561.27;109419;1254;58946;-59
2023/12/16 02:18:51;;;;;;;;;;;;;;;4.31;81.67;100558.70;109125;1254;74739;-61
2023/12/16 02:21:18;;;;;;;;;;;;;;;4.34;81.49;100555.28;109400;1254;67658;-60
2023/12/16 02:23:46;;;;;;;;;;;;;;;4.35;81.46;100560.65;109129;1254;73185;-60
2023/12/16 02:26:13;;;;;;;;;;;;;;;4.46;81.30;100564.58;109398;1256;60930;-59
2023/12/16 02:28:41;;;;;;;;;;;;;;;4.53;81.18;100566.64;109398;1253;58889;-60
2023/12/16 02:31:08;;;;;;;;;;;;;;;4.55;81.08;100571.00;109438;1254;74851;-59
2023/12/16 02:33:38;;;;;;;;;;;;;;;4.58;80.95;100565.80;109357;1254;67565;-59
2023/12/16 02:36:06;;;;;;;;;;;;;;;4.57;80.67;100571.56;109069;1254;72759;-59
2023/12/16 02:38:33;;;;;;;;;;;;;;;4.78;79.89;100572.88;109355;1254;59652;-60
2023/12/16 02:41:01;;;;;;;;;;;;;;;4.77;79.58;100574.12;109389;1254;59844;-59
2023/12/16 02:43:28;;;;;;;;;;;;;;;4.59;80.28;100572.44;109532;1251;73441;-60
2023/12/16 02:45:56;;;;;;;;;;;;;;;4.70;80.07;100570.86;109606;1252;67552;-62
2023/12/16 02:48:23;;;;;;;;;;;;;;;4.69;79.98;100567.83;109559;1253;71632;-61
2023/12/16 02:50:51;;;;;;;;;;;;;;;4.66;80.16;100566.94;109588;1251;61266;-59
2023/12/16 02:53:18;;;;;;;;;;;;;;;4.49;81.09;100569.18;109641;1250;59883;-59
2023/12/16 02:55:45;;;;;;;;;;;;;;;4.59;81.01;100571.14;109613;1251;73456;-59
2023/12/16 02:58:13;;;;;;;;;;;;;;;4.51;80.89;100576.08;109490;1251;68668;-59
2023/12/16 03:00:40;;;;;;;;;;;;;;;4.57;80.52;100585.44;109667;1252;72793;-59
2023/12/16 03:03:08;;;;;;;;;;;;;;;4.54;80.45;100590.63;109596;1251;61117;-59
2023/12/16 03:05:36;;;;;;;;;;;;;;;4.51;80.82;100589.13;109700;1251;59006;-59
2023/12/16 03:08:03;;;;;;;;;;;;;;;4.44;80.95;100586.27;109632;1251;73407;-59
2023/12/16 03:10:31;;;;;;;;;;;;;;;4.39;81.30;100586.80;109691;1250;69030;-59
2023/12/16 03:12:58;;;;;;;;;;;;;;;4.57;80.13;100592.20;109647;1251;71428;-59
2023/12/16 03:15:26;;;;;;;;;;;;;;;4.47;79.94;100589.98;109639;1251;59657;-59
2023/12/16 03:17:53;;;;;;;;;;;;;;;4.43;80.03;100596.73;109647;1251;58917;-59
2023/12/16 03:20:21;;;;;;;;;;;;;;;4.42;80.12;100597.45;109722;1251;74818;-59
2023/12/16 03:22:48;;;;;;;;;;;;;;;4.33;80.60;100602.23;109649;1251;69434;-60
2023/12/16 03:25:16;;;;;;;;;;;;;;;4.42;80.21;100605.74;109644;1251;72690;-59
2023/12/16 03:27:43;;;;;;;;;;;;;;;4.45;79.76;100608.89;109657;1251;59650;-59
2023/12/16 03:30:11;;;;;;;;;;;;;;;4.35;79.83;100611.52;109655;1252;59009;-59
2023/12/16 03:32:39;;;;;;;;;;;;;;;4.35;79.74;100611.36;108890;1250;1002331;-59
2023/12/16 03:35:07;;;;;;;;;;;;;;;4.40;79.66;100612.89;109653;1252;67564;-59
2023/12/16 03:37:34;;;;;;;;;;;;;;;4.40;79.71;100619.14;109675;1251;71676;-59
2023/12/16 03:40:02;;;;;;;;;;;;;;;4.48;79.23;100618.27;109624;1251;60952;-60
2023/12/16 03:42:30;;;;;;;;;;;;;;;4.47;79.28;100619.46;109636;1253;59923;-60
2023/12/16 03:44:58;;;;;;;;;;;;;;;4.47;79.34;100625.98;109683;1251;73426;-59
2023/12/16 03:47:26;;;;;;;;;;;;;;;4.64;78.71;100627.64;109645;1251;68521;-59
2023/12/16 03:49:53;;;;;;;;;;;;;;;4.57;78.60;100622.19;109638;1253;72739;-62
2023/12/16 03:52:20;;;;;;;;;;;;;;;4.41;79.54;100615.80;109624;1253;60937;-59
2023/12/16 03:54:48;;;;;;;;;;;;;;;4.35;80.07;100623.09;109630;1252;59028;-59
2023/12/16 03:57:15;;;;;;;;;;;;;;;4.34;80.40;100617.12;109637;1251;72726;-59
2023/12/16 03:59:43;;;;;;;;;;;;;;;4.45;79.80;100617.61;109646;1250;68493;-59
2023/12/16 04:02:10;;;;;;;;;;;;;;;4.52;79.13;100609.99;109651;1251;72737;-59
2023/12/16 04:04:38;;;;;;;;;;;;;;;4.53;79.23;100611.23;109596;1251;60296;-59
2023/12/16 04:07:05;;;;;;;;;;;;;;;4.56;79.10;100610.37;109697;1251;59016;-59
2023/12/16 04:09:33;;;;;;;;;;;;;;;4.50;79.09;100614.52;109620;1252;74774;-59
2023/12/16 04:12:00;;;;;;;;;;;;;;;4.46;79.44;100622.95;109669;1251;68808;-59
2023/12/16 04:14:28;;;;;;;;;;;;;;;4.37;80.07;100627.86;109638;1251;72710;-59
2023/12/16 04:16:55;;;;;;;;;;;;;;;4.55;79.79;100629.13;109648;1251;59610;-59
2023/12/16 04:19:23;;;;;;;;;;;;;;;4.47;79.74;100628.70;109657;1253;59858;-59
2023/12/16 04:21:50;;;;;;;;;;;;;;;4.56;79.53;100629.22;109637;1251;72668;-59
2023/12/16 04:24:18;;;;;;;;;;;;;;;4.47;79.87;100623.89;109627;1251;66496;-60
2023/12/16 04:26:45;;;;;;;;;;;;;;;4.53;80.02;100624.60;109611;1251;72699;-59
2023/12/16 04:29:13;;;;;;;;;;;;;;;4.49;79.95;100621.13;109645;1252;60169;-59
2023/12/16 04:31:40;;;;;;;;;;;;;;;4.63;79.51;100623.17;109679;1250;59877;-59
2023/12/16 04:34:08;;;;;;;;;;;;;;;4.33;80.39;100623.05;109643;1250;73506;-59
2023/12/16 04:36:35;;;;;;;;;;;;;;;4.24;81.41;100626.48;109498;1251;67632;-59
2023/12/16 04:39:07;;;;;;;;;;;;;;;4.28;81.35;100623.88;109611;1250;72762;-59
2023/12/16 04:41:35;;;;;;;;;;;;;;;4.29;81.81;100628.20;109618;1251;60934;-59
2023/12/16 04:44:02;;;;;;;;;;;;;;;4.56;80.45;100629.04;109491;1251;59829;-59
2023/12/16 04:46:30;;;;;;;;;;;;;;;4.34;81.07;100627.38;109305;1253;74707;-60
2023/12/16 04:48:58;;;;;;;;;;;;;;;4.42;80.90;100623.95;109331;1252;67641;-61
2023/12/16 04:51:26;;;;;;;;;;;;;;;4.53;80.83;100623.19;109545;1252;72722;-59
2023/12/16 04:53:53;;;;;;;;;;;;;;;4.35;81.69;100618.14;109527;1252;60925;-59
2023/12/16 04:56:21;;;;;;;;;;;;;;;4.47;81.25;100615.84;109541;1252;59856;-62
2023/12/16 04:58:48;;;;;;;;;;;;;;;4.44;81.52;100620.50;109546;1252;72461;-59
2023/12/16 05:01:15;;;;;;;;;;;;;;;4.59;80.85;100623.33;109477;1253;68553;-62
2023/12/16 05:03:43;;;;;;;;;;;;;;;4.46;81.28;100622.58;109495;1252;72696;-60
2023/12/16 05:06:10;;;;;;;;;;;;;;;4.46;81.49;100615.73;109520;1252;60981;-59
2023/12/16 05:08:38;;;;;;;;;;;;;;;4.48;81.62;100620.74;109377;1252;59917;-60
2023/12/16 05:11:05;;;;;;;;;;;;;;;4.62;80.74;100617.96;109576;1252;73451;-59
2023/12/16 05:13:33;;;;;;;;;;;;;;;4.70;80.56;100622.66;109605;1252;67334;-59
2023/12/16 05:16:00;;;;;;;;;;;;;;;4.63;80.62;100628.45;109554;1253;72707;-60
2023/12/16 05:18:28;;;;;;;;;;;;;;;4.65;80.66;100629.32;109525;1252;59644;-60
2023/12/16 05:20:55;;;;;;;;;;;;;;;4.57;80.84;100636.34;109559;1252;59849;-61
2023/12/16 05:23:23;;;;;;;;;;;;;;;4.51;81.62;100637.39;109421;1252;138745;-59
2023/12/16 05:25:50;;;;;;;;;;;;;;;4.69;80.65;100639.14;109590;1252;68927;-61
2023/12/16 05:28:18;;;;;;;;;;;;;;;4.69;80.53;100643.36;109595;1253;72704;-60
2023/12/16 05:30:45;;;;;;;;;;;;;;;4.67;80.45;100648.44;109452;1252;59704;-62
2023/12/16 05:33:13;;;;;;;;;;;;;;;4.50;81.54;100655.25;109460;1253;59037;-59
2023/12/16 05:35:40;;;;;;;;;;;;;;;4.39;82.94;100647.56;109421;1253;74748;-61
2023/12/16 05:38:08;;;;;;;;;;;;;;;4.49;82.49;100647.17;109526;1254;66250;-60
2023/12/16 05:40:35;;;;;;;;;;;;;;;4.61;81.98;100647.50;109416;1253;72754;-60
2023/12/16 05:43:03;;;;;;;;;;;;;;;4.40;83.33;100645.89;109371;1254;60970;-60
2023/12/16 05:45:31;;;;;;;;;;;;;;;4.50;83.07;100646.58;109470;1254;59897;-61
2023/12/16 05:47:58;;;;;;;;;;;;;;;4.61;82.60;100644.46;109472;1253;74076;-60
2023/12/16 05:50:26;;;;;;;;;;;;;;;4.58;82.56;100639.88;109492;1254;67544;-60
2023/12/16 05:52:53;;;;;;;;;;;;;;;4.65;82.61;100647.16;109271;1253;71453;-60
2023/12/16 05:55:20;;;;;;;;;;;;;;;4.72;82.64;100657.02;109457;1253;59747;-60
2023/12/16 05:57:48;;;;;;;;;;;;;;;4.68;82.63;100658.73;109183;1253;59960;-64
2023/12/16 06:00:16;;;;;;;;;;;;;;;4.62;82.98;100665.09;109493;1253;73728;-61
2023/12/16 06:02:44;;;;;;;;;;;;;;;4.79;82.15;100670.88;109566;1252;68857;-60
2023/12/16 06:05:11;;;;;;;;;;;;;;;4.77;81.69;100679.11;109482;1252;72728;-60
2023/12/16 06:07:39;;;;;;;;;;;;;;;4.90;81.38;100684.98;109483;1257;59692;-61
2023/12/16 06:10:07;;;;;;;;;;;;;;;4.91;81.46;100687.83;109600;1252;58964;-60
2023/12/16 06:12:35;;;;;;;;;;;;;;;4.81;81.15;100687.67;109546;1252;73705;-61
2023/12/16 06:15:02;;;;;;;;;;;;;;;4.95;80.75;100687.54;109583;1252;68856;-59
2023/12/16 06:17:30;;;;;;;;;;;;;;;4.88;80.83;100689.96;109557;1254;72760;-60
2023/12/16 06:19:57;;;;;;;;;;;;;;;4.93;80.82;100690.80;109463;1253;59711;-60
2023/12/16 06:22:25;;;;;;;;;;;;;;;4.87;81.10;100690.81;109526;1253;58904;-60
2023/12/16 06:24:53;;;;;;;;;;;;;;;5.01;80.69;100693.17;109478;1253;73450;-59
2023/12/16 06:27:20;;;;;;;;;;;;;;;4.95;80.62;100691.91;109503;1253;69048;-61
2023/12/16 06:29:48;;;;;;;;;;;;;;;4.93;81.07;100693.13;109433;1254;72853;-60
2023/12/16 06:32:15;;;;;;;;;;;;;;;5.00;80.98;100692.09;109427;1254;59622;-62
2023/12/16 06:34:43;;;;;;;;;;;;;;;5.17;80.34;100700.83;109193;1259;59025;-60
2023/12/16 06:37:10;;;;;;;;;;;;;;;5.15;80.08;100706.37;109495;1252;72476;-61
2023/12/16 06:39:38;;;;;;;;;;;;;;;5.26;80.03;100702.13;109469;1253;67242;-63
2023/12/16 06:42:08;;;;;;;;;;;;;;;5.20;80.00;100701.06;109161;1254;73456;-61
2023/12/16 06:44:36;;;;;;;;;;;;;;;5.19;80.35;100707.03;109446;1253;60983;-61
2023/12/16 06:47:04;;;;;;;;;;;;;;;5.33;79.73;100712.20;109457;1253;59878;-59
2023/12/16 06:49:31;;;;;;;;;;;;;;;5.30;79.90;100713.88;109425;1253;73475;-61
2023/12/16 06:51:59;;;;;;;;;;;;;;;5.32;79.81;100716.27;109589;1253;68797;-61
2023/12/16 06:54:26;;;;;;;;;;;;;;;5.23;80.18;100710.55;109578;1252;71530;-61
2023/12/16 06:56:54;;;;;;;;;;;;;;;5.27;80.59;100718.71;109458;1254;60986;-61
2023/12/16 06:59:21;;;;;;;;;;;;;;;5.29;80.84;100722.52;109255;1252;59000;-62
2023/12/16 07:01:48;;;;;;;;;;;;;;;5.29;80.98;100720.88;109619;1252;73586;-61
2023/12/16 07:04:16;;;;;;;;;;;;;;;5.46;80.47;100724.46;109566;1252;69079;-70
2023/12/16 07:06:44;;;;;;;;;;;;;;;5.56;79.78;100723.74;109544;1253;72722;-61
2023/12/16 07:09:11;;;;;;;;;;;;;;;5.47;80.38;100722.39;109559;1252;59735;-62
2023/12/16 07:11:40;;;;;;;;;;;;;;;5.49;80.58;100724.33;109569;1252;59952;-62
2023/12/16 07:14:09;;;;;;;;;;;;;;;5.49;81.22;100725.86;109504;1252;74805;-64
2023/12/16 07:16:37;;;;;;;;;;;;;;;5.45;81.95;100724.05;109485;1253;68480;-64
2023/12/16 07:19:05;;;;;;;;;;;;;;;5.35;82.31;100722.49;109588;1251;70470;-63
2023/12/16 07:21:32;;;;;;;;;;;;;;;5.21;84.10;100719.95;109501;1252;59125;-62
2023/12/16 07:24:00;;;;;;;;;;;;;;;5.29;84.35;100722.54;109328;1252;59051;-63
2023/12/16 07:26:27;;;;;;;;;;;;;;;5.42;84.05;100726.65;109566;1252;76811;-61
2023/12/16 07:28:54;;;;;;;;;;;;;;;5.45;84.10;100725.36;109597;1252;67606;-65
2023/12/16 07:31:22;;;;;;;;;;;;;;;5.50;84.35;100720.73;109376;1252;71415;-64
2023/12/16 07:33:49;;;;;;;;;;;;;;;5.41;84.81;100717.43;109457;1254;60924;-63
2023/12/16 07:36:18;;;;;;;;;;;;;;;5.40;85.88;100717.26;109605;1252;58975;-65
2023/12/16 07:38:45;;;;;;;;;;;;;;;5.33;87.18;100712.23;109588;1251;74711;-66
2023/12/16 07:41:12;;;;;;;;;;;;;;;5.40;87.27;100711.80;109597;1252;68809;-64
2023/12/16 07:43:41;;;;;;;;;;;;;;;5.55;87.55;100707.09;109551;1252;71406;-64
2023/12/16 07:46:08;;;;;;;;;;;;;;;5.50;87.80;100703.82;109538;1252;59622;-60
2023/12/16 07:48:36;;;;;;;;;;;;;;;5.53;88.08;100698.56;109557;1252;59807;-63
2023/12/16 07:51:04;;;;;;;;;;;;;;;5.16;90.52;100699.63;109547;1252;75815;-60
2023/12/16 07:53:31;;;;;;;;;;;;;;;5.35;90.16;100703.48;109575;1251;68761;-60
2023/12/16 07:55:58;;;;;;;;;;;;;;;5.17;91.23;100698.81;109559;1252;72729;-61
2023/12/16 07:58:26;;;;;;;;;;;;;;;5.25;91.92;100700.03;109558;1252;59917;-60
2023/12/16 08:00:53;;;;;;;;;;;;;;;5.25;91.39;100702.01;109587;1252;58979;-59
2023/12/16 08:03:21;;;;;;;;;;;;;;;5.69;89.80;100712.77;109574;1252;74740;-60
2023/12/16 08:05:48;;;;;;;;;;;;;;;5.91;88.03;100716.40;109516;1252;70018;-61
2023/12/16 08:08:16;;;;;;;;;;;;;;;5.53;88.82;100714.08;109623;1252;72476;-61
2023/12/16 08:10:43;;;;;;;;;;;;;;;5.68;89.11;100720.77;109572;1252;59642;-59
2023/12/16 08:13:11;;;;;;;;;;;;;;;5.63;88.67;100722.77;109383;1252;59877;-58
2023/12/16 08:15:39;;;;;;;;;;;;;;;5.57;89.16;100729.89;109597;1253;73452;-60
2023/12/16 08:18:07;;;;;;;;;;;;;;;5.57;89.13;100735.19;109358;1252;68509;-60
2023/12/16 08:20:35;;;;;;;;;;;;;;;5.32;90.36;100729.59;109597;1252;72735;-59
2023/12/16 08:23:05;;;;;;;;;;;;;;;5.40;90.88;100727.56;109516;1252;60921;-58
2023/12/16 08:25:35;;;;;;;;;;;;;;;5.56;90.19;100725.17;109544;1252;59855;-59
2023/12/16 08:28:02;;;;;;;;;;;;;;;5.51;90.11;100722.96;109601;1252;73413;-58
2023/12/16 08:30:30;;;;;;;;;;;;;;;5.52;90.27;100719.36;109588;1253;68850;-59
2023/12/16 08:32:57;;;;;;;;;;;;;;;5.46;90.99;100717.88;109576;1252;71406;-58
2023/12/16 08:35:26;;;;;;;;;;;;;;;5.19;92.92;100712.23;109467;1254;61041;-58
2023/12/16 08:37:57;;;;;;;;;;;;;;;5.27;92.99;100709.10;109516;1256;59866;-58
2023/12/16 08:40:25;;;;;;;;;;;;;;;5.24;93.83;100710.55;109604;1252;74708;-59
2023/12/16 08:42:52;;;;;;;;;;;;;;;5.61;91.37;100710.43;109578;1252;68819;-58
2023/12/16 08:45:20;;;;;;;;;;;;;;;5.66;91.09;100703.41;109591;1252;72784;-59
2023/12/16 08:47:47;;;;;;;;;;;;;;;5.47;92.34;100695.02;109588;1253;59785;-57
2023/12/16 08:50:15;;;;;;;;;;;;;;;5.45;92.72;100697.59;109273;1252;59896;-58
2023/12/16 08:52:42;;;;;;;;;;;;;;;5.63;91.90;100697.85;109628;1252;74751;-58
2023/12/16 08:55:10;;;;;;;;;;;;;;;5.73;91.07;100694.95;109542;1252;68511;-58
2023/12/16 08:57:38;;;;;;;;;;;;;;;5.89;90.50;100694.57;109483;1252;73260;-58
2023/12/16 09:00:08;;;;;;;;;;;;;;;6.02;89.30;100686.71;109465;1254;59681;-61
2023/12/16 09:02:36;;;;;;;;;;;;;;;5.86;89.50;100686.80;109411;1253;59893;-59
2023/12/16 09:05:03;;;;;;;;;;;;;;;5.80;90.90;100688.77;109271;1257;74758;-59
2023/12/16 09:07:31;;;;;;;;;;;;;;;6.06;89.21;100690.02;109486;1253;67996;-59
2023/12/16 09:09:58;;;;;;;;;;;;;;;6.10;88.77;100688.23;109296;1252;71465;-60
2023/12/16 09:12:26;;;;;;;;;;;;;;;5.72;91.01;100692.56;109556;1253;59674;-58
2023/12/16 09:14:53;;;;;;;;;;;;;;;5.82;91.29;100689.19;109560;1253;58878;-58
2023/12/16 09:17:20;;;;;;;;;;;;;;;5.88;90.30;100689.69;109503;1252;74625;-58
2023/12/16 09:19:48;;;;;;;;;;;;;;;6.05;89.90;100693.63;109581;1253;68295;-57
2023/12/16 09:22:16;;;;;;;;;;;;;;;5.94;90.24;100686.11;109552;1252;74681;-59
2023/12/16 09:24:44;;;;;;;;;;;;;;;5.82;91.54;100680.20;109566;1253;60901;-58
2023/12/16 09:27:11;;;;;;;;;;;;;;;5.89;91.33;100674.36;109508;1254;58938;-57
2023/12/16 09:29:39;;;;;;;;;;;;;;;5.85;91.79;100669.45;109636;1252;74739;-57
2023/12/16 09:32:06;;;;;;;;;;;;;;;5.94;91.96;100668.87;109615;1252;68581;-59
2023/12/16 09:34:34;;;;;;;;;;;;;;;5.96;91.29;100666.70;109549;1256;72759;-60
2023/12/16 09:37:01;;;;;;;;;;;;;;;5.95;91.91;100665.54;109571;1253;59619;-58
2023/12/16 09:39:29;;;;;;;;;;;;;;;6.21;90.53;100663.73;109610;1253;58926;-58
2023/12/16 09:41:56;;;;;;;;;;;;;;;6.18;90.49;100663.38;109610;1253;74685;-58
2023/12/16 09:44:24;;;;;;;;;;;;;;;6.17;90.87;100660.30;109589;1253;67492;-61
2023/12/16 09:46:53;;;;;;;;;;;;;;;6.15;90.78;100659.81;109567;1253;72722;-58
2023/12/16 09:49:21;;;;;;;;;;;;;;;6.21;90.67;100652.66;109553;1253;60959;-58
2023/12/16 09:51:48;;;;;;;;;;;;;;;6.19;90.74;100650.23;109583;1252;60057;-58
2023/12/16 09:54:16;;;;;;;;;;;;;;;6.23;90.57;100650.98;109590;1253;73465;-59
2023/12/16 09:56:46;;;;;;;;;;;;;;;6.27;90.41;100643.33;109547;1253;67295;-58
2023/12/16 09:59:13;;;;;;;;;;;;;;;6.43;89.57;100644.95;109561;1252;72728;-58
2023/12/16 10:01:41;;;;;;;;;;;;;;;6.45;88.53;100639.79;109318;1254;59634;-58
2023/12/16 10:04:08;;;;;;;;;;;;;;;6.58;88.71;100645.45;109279;1253;58943;-57
2023/12/16 10:06:36;;;;;;;;;;;;;;;6.42;88.59;100643.14;109630;1252;74707;-56
2023/12/16 10:09:04;;;;;;;;;;;;;;;6.48;88.14;100635.79;109553;1252;68981;-57
2023/12/16 10:11:38;;;;;;;;;;;;;;;6.67;87.74;100631.65;109637;1252;71439;-58
2023/12/16 10:14:05;;;;;;;;;;;;;;;6.72;86.41;100630.42;109575;1253;60987;-60
2023/12/16 10:16:33;;;;;;;;;;;;;;;6.64;86.02;100630.54;109379;1252;60149;-57
2023/12/16 10:19:00;;;;;;;;;;;;;;;6.63;86.08;100627.91;109496;1253;75375;-61
2023/12/16 10:21:29;;;;;;;;;;;;;;;6.82;85.79;100626.02;109538;1253;68516;-56
2023/12/16 10:23:57;;;;;;;;;;;;;;;6.82;84.84;100625.31;109595;1252;72720;-57
2023/12/16 10:26:25;;;;;;;;;;;;;;;6.81;84.34;100624.98;109532;1253;60907;-58
2023/12/16 10:28:52;;;;;;;;;;;;;;;6.84;84.29;100627.25;109589;1253;58911;-58
2023/12/16 10:31:21;;;;;;;;;;;;;;;6.85;84.03;100625.89;109628;1252;75182;-58
2023/12/16 10:33:49;;;;;;;;;;;;;;;6.87;83.77;100629.27;109598;1253;67565;-57
2023/12/16 10:36:17;;;;;;;;;;;;;;;6.86;83.61;100629.59;109569;1253;72733;-57
2023/12/16 10:38:44;;;;;;;;;;;;;;;6.81;84.44;100625.69;109480;1253;61531;-59
2023/12/16 10:41:12;;;;;;;;;;;;;;;6.67;85.27;100622.66;109612;1252;58872;-58
2023/12/16 10:43:39;;;;;;;;;;;;;;;6.66;85.98;100623.67;109505;1253;75118;-58
2023/12/16 10:46:07;;;;;;;;;;;;;;;6.88;85.14;100625.08;109635;1251;67671;-57
2023/12/16 10:48:35;;;;;;;;;;;;;;;6.70;85.82;100622.95;109503;1252;72723;-58
2023/12/16 10:51:03;;;;;;;;;;;;;;;6.71;85.79;100623.61;109568;1253;61133;-59
2023/12/16 10:53:36;;;;;;;;;;;;;;;6.60;86.77;100619.73;109582;1253;58941;-58
2023/12/16 10:56:04;;;;;;;;;;;;;;;6.52;87.92;100615.65;109526;1252;73420;-60
2023/12/16 10:58:32;;;;;;;;;;;;;;;6.73;87.85;100619.42;109616;1253;68783;-58
2023/12/16 11:01:04;;;;;;;;;;;;;;;6.73;86.88;100613.36;109319;1253;71471;-59
2023/12/16 11:03:41;;;;;;;;;;;;;;;6.79;86.23;100611.44;109520;1255;60918;-59
2023/12/16 11:06:13;;;;;;;;;;;;;;;6.72;86.14;100607.07;109597;1251;59862;-59
2023/12/16 11:08:40;;;;;;;;;;;;;;;6.52;87.37;100611.13;109542;1257;74687;-61
2023/12/16 11:11:08;;;;;;;;;;;;;;;6.49;87.45;100607.09;109461;1252;68832;-58
2023/12/16 11:13:35;;;;;;;;;;;;;;;6.73;86.22;100607.90;109305;1253;71818;-59
2023/12/16 11:16:05;;;;;;;;;;;;;;;6.71;85.88;100602.02;109111;1254;59678;-59
2023/12/16 11:18:33;;;;;;;;;;;;;;;6.49;87.16;100602.42;109155;1253;59858;-58
2023/12/16 11:21:04;;;;;;;;;;;;;;;6.70;86.41;100599.20;109620;1252;73406;-59
2023/12/16 11:23:34;;;;;;;;;;;;;;;6.70;85.82;100602.21;109610;1253;68499;-58
2023/12/16 11:26:02;;;;;;;;;;;;;;;6.77;85.92;100598.79;109543;1253;72741;-57
2023/12/16 11:28:30;;;;;;;;;;;;;;;6.71;85.80;100598.45;109529;1253;58970;-58
2023/12/16 11:30:58;;;;;;;;;;;;;;;6.69;86.18;100602.38;109370;1252;59016;-59
2023/12/16 11:33:44;;;;;;;;;;;;;;;6.82;85.73;100605.44;109632;1252;73805;-58
2023/12/16 11:36:12;;;;;;;;;;;;;;;6.79;85.70;100599.73;109560;1253;68817;-59
2023/12/16 11:38:42;;;;;;;;;;;;;;;6.51;87.26;100599.08;109511;1253;72777;-64
2023/12/16 11:41:10;;;;;;;;;;;;;;;6.50;88.02;100597.91;109599;1253;59675;-60
2023/12/16 11:43:51;;;;;;;;;;;;;;;6.11;90.74;100599.61;109558;1252;58854;-60
2023/12/16 11:46:32;;;;;;;;;;;;;;;6.17;91.32;100597.02;109600;1252;73630;-60
2023/12/16 11:49:02;;;;;;;;;;;;;;;6.13;91.53;100592.16;109202;1253;68800;-59
2023/12/16 11:51:30;;;;;;;;;;;;;;;6.11;92.17;100591.42;109488;1253;71740;-59
2023/12/16 11:53:57;;;;;;;;;;;;;;;6.03;92.84;100587.50;109125;1254;59742;-62
2023/12/16 11:56:26;;;;;;;;;;;;;;;6.06;93.13;100594.52;109267;1253;59857;-61
2023/12/16 11:58:59;;;;;;;;;;;;;;;6.09;93.08;100591.25;109443;1253;73457;-64
2023/12/16 12:01:27;;;;;;;;;;;;;;;6.08;93.44;100585.38;109505;1253;68784;-62
2023/12/16 12:03:55;;;;;;;;;;;;;;;6.07;93.94;100585.45;109353;1253;72777;-64
2023/12/16 12:06:22;;;;;;;;;;;;;;;6.24;93.17;100589.79;109310;1255;60932;-64
2023/12/16 12:08:50;;;;;;;;;;;;;;;6.28;92.91;100583.11;109350;1253;59896;-63
2023/12/16 12:11:18;;;;;;;;;;;;;;;6.04;94.07;100578.55;109391;1253;74708;-62
2023/12/16 12:13:46;;;;;;;;;;;;;;;6.19;93.81;100581.16;109353;1253;67726;-63
2023/12/16 12:16:14;;;;;;;;;;;;;;;6.19;93.76;100581.81;109348;1253;72772;-63
2023/12/16 12:18:41;;;;;;;;;;;;;;;6.15;93.53;100576.42;109292;1253;60950;-64
2023/12/16 12:21:09;;;;;;;;;;;;;;;6.00;94.98;100580.88;109416;1254;59811;-64
2023/12/16 12:23:38;;;;;;;;;;;;;;;6.04;94.76;100581.14;109026;1257;75147;-64
2023/12/16 12:26:05;;;;;;;;;;;;;;;6.15;94.44;100579.88;109274;1254;68763;-63
2023/12/16 12:28:33;;;;;;;;;;;;;;;6.02;94.98;100575.27;109270;1254;72747;-63
2023/12/16 12:31:07;;;;;;;;;;;;;;;5.94;95.60;100574.23;109257;1254;60963;-62
2023/12/16 12:33:35;;;;;;;;;;;;;;;5.86;96.22;100576.27;109286;1257;59775;-65
2023/12/16 12:36:03;;;;;;;;;;;;;;;5.85;96.50;100573.00;109230;1256;73390;-59
2023/12/16 12:38:32;;;;;;;;;;;;;;;5.94;96.25;100573.34;109020;1257;68918;-59